Time;durP1;ratioP1;P1;durP2;ratioP2;P2;SDS_P1;SDS_P2;PMS_P1;PMS_P2;Temp;Humidity;BMP_temperature;BMP_pressure;BME280_temperature;BME280_humidity;BME280_pressure;Samples;Min_cycle;Max_cycle;Signal;HPM_P1;HPM_P2
2022/06/16 01:02:11;;;;;;;14.37;13.27;;;16.30;99.90;;;;;;4965750;28;20450;-52
2022/06/16 01:04:52;;;;;;;13.50;12.40;;;16.20;99.90;;;;;;4971473;28;20418;-53
2022/06/16 01:07:40;;;;;;;14.30;13.10;;;16.20;99.90;;;;;;4970179;28;20233;-54
2022/06/16 01:10:07;;;;;;;13.87;12.80;;;16.10;99.90;;;;;;4976914;28;20472;-54
2022/06/16 01:15:55;;;;;;;14.17;12.97;;;16.10;99.90;;;;;;4967475;28;20448;-56
2022/06/16 01:18:52;;;;;;;13.50;12.50;;;16.10;99.90;;;;;;4968645;28;20935;-55
2022/06/16 01:21:42;;;;;;;13.43;12.43;;;16.00;99.90;;;;;;4960487;28;20472;-53
2022/06/16 01:24:35;;;;;;;14.27;13.17;;;16.00;99.90;;;;;;4965993;28;20436;-56
2022/06/16 01:27:20;;;;;;;14.27;13.20;;;15.90;99.90;;;;;;4969109;28;20476;-54
2022/06/16 01:30:00;;;;;;;14.73;13.43;;;15.80;99.90;;;;;;4961784;28;20491;-54
2022/06/16 01:32:41;;;;;;;14.03;12.93;;;15.70;99.90;;;;;;4969113;28;20519;-51
2022/06/16 01:35:43;;;;;;;14.53;13.37;;;15.70;99.90;;;;;;4970892;28;20420;-54
2022/06/16 01:38:19;;;;;;;15.07;13.67;;;15.60;99.90;;;;;;4968376;28;20435;-54
2022/06/16 01:40:58;;;;;;;15.47;14.27;;;15.60;99.90;;;;;;4967565;28;20475;-56
2022/06/16 01:43:29;;;;;;;14.93;13.70;;;15.60;99.90;;;;;;4970586;28;20466;-54
2022/06/16 01:46:23;;;;;;;14.80;13.60;;;15.50;99.90;;;;;;4967692;28;20445;-56
2022/06/16 01:48:53;;;;;;;16.13;14.77;;;15.50;99.90;;;;;;4972939;28;20464;-55
2022/06/16 01:51:40;;;;;;;14.77;13.70;;;15.50;99.90;;;;;;4968768;28;20439;-53
2022/06/16 01:54:32;;;;;;;15.37;14.17;;;15.50;99.90;;;;;;4969154;28;20440;-53
2022/06/16 01:57:10;;;;;;;14.63;13.50;;;15.40;99.90;;;;;;4978257;28;20451;-52
2022/06/16 02:00:12;;;;;;;15.13;13.77;;;15.30;99.90;;;;;;4969180;28;20547;-56
2022/06/16 02:02:41;;;;;;;16.13;14.83;;;15.30;99.90;;;;;;4972164;28;20487;-56
2022/06/16 02:05:23;;;;;;;13.87;12.87;;;15.30;99.90;;;;;;4969523;28;20839;-55
2022/06/16 02:07:58;;;;;;;15.90;14.50;;;15.30;99.90;;;;;;4980273;28;20806;-54
2022/06/16 02:10:34;;;;;;;14.20;13.00;;;15.30;99.90;;;;;;4970343;28;21073;-56
2022/06/16 02:13:04;;;;;;;14.63;13.50;;;15.20;99.90;;;;;;4968170;28;20432;-50
2022/06/16 02:15:59;;;;;;;15.03;13.83;;;15.20;99.90;;;;;;4971633;28;20527;-55
2022/06/16 02:18:28;;;;;;;15.30;14.00;;;15.10;99.90;;;;;;4970625;28;20995;-55
2022/06/16 02:21:00;;;;;;;15.03;13.67;;;15.10;99.90;;;;;;4973958;28;20427;-56
2022/06/16 02:23:26;;;;;;;14.43;13.33;;;15.10;99.90;;;;;;4973339;28;20858;-52
2022/06/16 02:25:55;;;;;;;16.07;14.77;;;15.10;99.90;;;;;;4975556;28;20491;-52
2022/06/16 02:28:21;;;;;;;15.53;14.33;;;15.00;99.90;;;;;;4971243;28;20187;-56
2022/06/16 02:31:02;;;;;;;14.63;13.43;;;15.00;99.90;;;;;;4968829;28;20428;-54
2022/06/16 02:33:59;;;;;;;14.83;13.67;;;15.00;99.90;;;;;;4972409;28;21157;-58
2022/06/16 02:36:39;;;;;;;15.40;14.20;;;14.90;99.90;;;;;;4976943;28;20439;-54
2022/06/16 02:39:17;;;;;;;13.90;12.80;;;14.90;99.90;;;;;;4968320;28;20549;-55
2022/06/16 02:42:08;;;;;;;14.57;13.37;;;14.90;99.90;;;;;;4961308;28;20471;-53
2022/06/16 02:45:05;;;;;;;15.23;13.93;;;14.90;99.90;;;;;;4964198;28;20470;-51
2022/06/16 02:47:48;;;;;;;14.40;13.20;;;14.90;99.90;;;;;;4966048;28;20441;-54
2022/06/16 02:50:40;;;;;;;14.90;13.70;;;14.80;99.90;;;;;;4971487;28;20459;-49
2022/06/16 02:53:08;;;;;;;15.13;13.83;;;14.80;99.90;;;;;;4978163;28;20444;-53
2022/06/16 02:55:40;;;;;;;14.23;13.13;;;14.70;99.90;;;;;;4972727;28;20508;-52
2022/06/16 02:58:09;;;;;;;14.13;12.93;;;14.70;99.90;;;;;;4971638;28;20493;-56
2022/06/16 03:00:41;;;;;;;14.30;13.00;;;14.70;99.90;;;;;;4967311;28;20563;-56
2022/06/16 03:03:28;;;;;;;14.40;13.30;;;14.70;99.90;;;;;;4998396;28;20429;-52
2022/06/16 03:05:55;;;;;;;14.73;13.53;;;14.70;99.90;;;;;;4963320;28;20467;-55
2022/06/16 03:08:23;;;;;;;14.27;13.07;;;14.70;99.90;;;;;;4977112;28;20440;-55
2022/06/16 03:10:52;;;;;;;13.40;12.40;;;14.80;99.90;;;;;;4969668;28;20447;-54
2022/06/16 03:13:25;;;;;;;13.40;12.30;;;14.80;99.90;;;;;;4977441;28;20436;-54
2022/06/16 03:15:53;;;;;;;15.00;13.80;;;14.80;99.90;;;;;;4971440;28;20786;-56
2022/06/16 03:18:20;;;;;;;14.17;13.03;;;14.80;99.90;;;;;;4982177;28;20439;-52
2022/06/16 03:20:46;;;;;;;13.57;12.57;;;14.90;99.90;;;;;;4970085;28;20440;-53
2022/06/16 03:23:12;;;;;;;13.97;12.83;;;14.90;99.90;;;;;;4972626;28;20432;-51
2022/06/16 03:25:38;;;;;;;13.60;12.50;;;15.00;99.90;;;;;;4968988;28;20438;-54
2022/06/16 03:28:04;;;;;;;13.90;12.80;;;15.00;99.90;;;;;;4970367;28;20189;-54
2022/06/16 03:30:29;;;;;;;14.07;12.77;;;15.10;99.90;;;;;;4970377;28;20490;-52
2022/06/16 03:32:55;;;;;;;13.73;12.63;;;15.20;99.90;;;;;;4971247;28;20639;-56
2022/06/16 03:35:21;;;;;;;13.43;12.43;;;15.30;99.90;;;;;;4970776;28;20181;-54
2022/06/16 03:37:46;;;;;;;13.83;12.63;;;15.40;99.90;;;;;;4982277;28;20992;-52
2022/06/16 03:40:13;;;;;;;13.83;12.63;;;15.40;99.90;;;;;;4972220;28;20185;-56
2022/06/16 03:42:39;;;;;;;14.03;12.83;;;15.50;99.90;;;;;;4972100;28;20188;-54
2022/06/16 03:45:07;;;;;;;12.80;11.80;;;15.60;99.90;;;;;;4970596;28;20982;-54
2022/06/16 03:47:33;;;;;;;13.27;12.17;;;15.70;99.90;;;;;;4971935;28;20476;-53
2022/06/16 03:49:58;;;;;;;13.20;12.20;;;15.70;99.90;;;;;;4971146;28;20512;-55
2022/06/16 03:52:24;;;;;;;13.37;12.10;;;15.70;99.90;;;;;;4972123;28;20205;-53
2022/06/16 03:54:50;;;;;;;12.90;11.80;;;15.70;99.90;;;;;;4970133;28;20583;-55
2022/06/16 03:57:15;;;;;;;12.97;11.77;;;15.80;99.90;;;;;;4971863;28;20449;-54
2022/06/16 03:59:41;;;;;;;12.87;11.87;;;15.80;99.90;;;;;;4971015;28;20186;-51
2022/06/16 04:02:07;;;;;;;13.20;12.10;;;15.80;99.90;;;;;;4968902;28;20244;-54
2022/06/16 04:04:32;;;;;;;13.33;12.13;;;15.70;99.90;;;;;;4970729;28;20266;-55
2022/06/16 04:06:58;;;;;;;12.87;11.87;;;15.80;99.90;;;;;;4970107;28;20565;-57
2022/06/16 04:09:23;;;;;;;12.30;11.30;;;15.80;99.90;;;;;;4970540;28;20244;-54
2022/06/16 04:11:49;;;;;;;14.23;13.00;;;15.90;99.90;;;;;;4967407;28;20182;-55
2022/06/16 04:14:15;;;;;;;13.23;12.13;;;15.90;99.90;;;;;;4947151;28;20241;-56
2022/06/16 04:16:48;;;;;;;12.90;12.00;;;15.90;99.90;;;;;;4985628;28;20178;-57
2022/06/16 04:19:17;;;;;;;12.90;12.00;;;16.00;99.90;;;;;;4953275;28;20190;-55
2022/06/16 04:21:44;;;;;;;12.90;11.90;;;15.90;99.90;;;;;;4959349;28;20925;-56
2022/06/16 04:24:11;;;;;;;13.43;12.27;;;15.90;99.90;;;;;;4946980;28;20454;-57
2022/06/16 04:26:37;;;;;;;12.83;11.83;;;16.00;99.90;;;;;;4957061;28;20434;-56
2022/06/16 04:29:04;;;;;;;12.83;11.73;;;16.00;99.90;;;;;;4946220;28;20482;-55
2022/06/16 04:31:31;;;;;;;12.30;11.23;;;16.00;99.90;;;;;;4959708;28;20425;-54
2022/06/16 04:33:57;;;;;;;13.73;12.70;;;16.10;99.90;;;;;;4948556;28;20960;-57
2022/06/16 04:36:24;;;;;;;12.80;11.80;;;16.20;99.90;;;;;;4990678;28;20541;-56
2022/06/16 04:38:50;;;;;;;13.50;12.30;;;16.20;99.90;;;;;;4947904;28;20441;-55
2022/06/16 04:41:16;;;;;;;13.63;12.50;;;16.20;99.90;;;;;;4945111;28;20432;-54
2022/06/16 04:43:42;;;;;;;13.13;12.03;;;16.10;99.90;;;;;;4945390;28;20253;-56
2022/06/16 04:46:08;;;;;;;13.10;12.00;;;16.20;99.90;;;;;;4964508;28;20835;-54
2022/06/16 04:48:35;;;;;;;13.70;12.57;;;16.30;99.90;;;;;;4967140;28;20540;-50
2022/06/16 04:51:03;;;;;;;17.50;14.63;;;16.40;99.90;;;;;;4971222;28;20449;-51
2022/06/16 04:53:29;;;;;;;12.70;11.60;;;16.60;99.90;;;;;;4970752;28;20527;-53
2022/06/16 04:55:56;;;;;;;12.67;11.67;;;16.80;99.90;;;;;;4971335;28;20434;-51
2022/06/16 04:58:23;;;;;;;12.23;11.30;;;16.90;99.90;;;;;;4969768;28;20498;-50
2022/06/16 05:00:50;;;;;;;13.50;12.30;;;17.10;99.90;;;;;;4976076;28;20486;-54
2022/06/16 05:03:17;;;;;;;12.10;11.10;;;17.20;99.90;;;;;;4968453;28;20905;-54
2022/06/16 05:05:46;;;;;;;11.83;11.03;;;17.30;99.90;;;;;;4970756;28;20895;-52
2022/06/16 05:08:13;;;;;;;13.53;12.43;;;17.30;99.90;;;;;;4968980;28;20467;-51
2022/06/16 05:10:39;;;;;;;13.37;12.37;;;17.40;99.90;;;;;;4970513;28;20812;-51
2022/06/16 05:13:06;;;;;;;13.73;12.70;;;17.40;99.90;;;;;;4971305;28;20918;-51
2022/06/16 05:15:31;;;;;;;12.07;11.17;;;17.40;99.90;;;;;;4970769;28;20435;-49
2022/06/16 05:17:57;;;;;;;12.47;11.57;;;17.40;99.90;;;;;;4969451;28;20459;-53
2022/06/16 05:20:22;;;;;;;12.00;10.93;;;17.60;99.90;;;;;;4970124;28;20192;-56
2022/06/16 05:22:48;;;;;;;11.27;10.47;;;17.90;99.90;;;;;;4970725;28;20243;-54
2022/06/16 05:25:14;;;;;;;12.00;10.90;;;18.10;99.90;;;;;;4970088;28;20544;-54
2022/06/16 05:27:40;;;;;;;11.90;11.10;;;18.20;99.90;;;;;;4970757;28;20675;-52
2022/06/16 05:30:06;;;;;;;12.70;11.70;;;18.40;99.90;;;;;;4969829;28;20474;-57
2022/06/16 05:32:33;;;;;;;11.90;10.70;;;18.60;99.90;;;;;;4970852;28;20173;-52
2022/06/16 05:34:58;;;;;;;11.23;10.30;;;18.70;99.90;;;;;;4969334;28;20428;-52
2022/06/16 05:37:24;;;;;;;10.80;10.10;;;18.80;99.90;;;;;;4970811;28;21302;-53
2022/06/16 05:39:50;;;;;;;11.70;10.90;;;19.00;99.90;;;;;;4970262;28;20197;-52
2022/06/16 05:42:17;;;;;;;11.40;10.50;;;19.10;99.90;;;;;;4970558;28;20587;-53
2022/06/16 05:44:43;;;;;;;12.83;11.93;;;19.30;99.90;;;;;;4971475;28;20189;-53
2022/06/16 05:47:09;;;;;;;12.60;11.30;;;19.30;99.90;;;;;;4970620;28;20475;-49
2022/06/16 05:49:38;;;;;;;12.20;11.20;;;19.40;99.90;;;;;;4969691;28;20452;-52
2022/06/16 05:52:16;;;;;;;11.93;11.10;;;19.50;99.90;;;;;;4969369;28;20510;-50
2022/06/16 05:54:42;;;;;;;11.23;10.10;;;19.70;99.90;;;;;;4970493;28;20527;-54
2022/06/16 05:57:08;;;;;;;12.40;11.50;;;19.80;99.90;;;;;;4969913;28;20436;-52
2022/06/16 05:59:35;;;;;;;12.47;11.47;;;19.90;99.90;;;;;;4969349;28;20432;-50
2022/06/16 06:02:02;;;;;;;12.20;11.30;;;20.00;99.90;;;;;;4969439;28;20533;-52
2022/06/16 06:04:30;;;;;;;12.70;11.63;;;20.10;99.90;;;;;;4970185;28;21166;-52
2022/06/16 06:06:56;;;;;;;12.93;11.93;;;20.10;99.90;;;;;;4969584;28;20444;-53
2022/06/16 06:17:43;;;;;;;12.30;11.40;;;20.60;99.90;;;;;;4958378;28;20408;-53
2022/06/16 06:20:09;;;;;;;12.83;11.80;;;20.90;99.90;;;;;;4970633;28;20420;-52
2022/06/16 06:22:35;;;;;;;12.50;11.30;;;21.10;99.90;;;;;;4969897;28;20202;-52
2022/06/16 06:25:01;;;;;;;11.70;10.87;;;21.00;99.90;;;;;;4969387;28;20426;-51
2022/06/16 06:27:37;;;;;;;12.37;11.37;;;21.10;99.90;;;;;;4956033;28;20219;-53
2022/06/16 06:30:14;;;;;;;11.77;10.67;;;21.30;99.90;;;;;;4970169;28;20202;-54
2022/06/16 06:32:40;;;;;;;11.73;10.83;;;21.40;99.50;;;;;;4969207;28;20766;-53
2022/06/16 06:35:06;;;;;;;13.00;12.00;;;21.50;98.80;;;;;;4970260;28;20407;-52
2022/06/16 06:37:32;;;;;;;12.80;11.77;;;21.50;98.70;;;;;;4957594;28;20193;-51
2022/06/16 06:39:58;;;;;;;12.53;11.73;;;21.50;98.60;;;;;;4970230;28;20438;-55
2022/06/16 06:42:24;;;;;;;13.40;12.30;;;21.50;98.50;;;;;;4962800;28;20188;-51
2022/06/16 06:44:50;;;;;;;12.50;11.70;;;21.40;98.60;;;;;;4967575;28;20268;-55
2022/06/16 06:47:23;;;;;;;13.30;12.33;;;21.20;98.60;;;;;;4968094;28;20899;-54
2022/06/16 06:49:49;;;;;;;12.97;12.00;;;21.20;99.90;;;;;;4966651;28;20474;-53
2022/06/16 06:52:15;;;;;;;12.87;11.77;;;21.10;99.90;;;;;;4969338;28;20494;-52
2022/06/16 06:54:43;;;;;;;13.17;11.97;;;21.00;99.90;;;;;;4967210;28;20417;-54
2022/06/16 06:57:16;;;;;;;12.90;11.83;;;20.90;99.90;;;;;;4969025;28;20919;-56
2022/06/16 06:59:41;;;;;;;13.00;11.87;;;20.80;99.90;;;;;;5001045;28;20433;-52
2022/06/16 07:02:11;;;;;;;13.87;12.67;;;20.50;99.90;;;;;;4960552;28;20452;-54
2022/06/16 07:04:38;;;;;;;13.70;12.50;;;20.40;99.90;;;;;;4973860;28;20228;-52
2022/06/16 07:07:04;;;;;;;13.93;12.80;;;20.40;99.90;;;;;;4972419;28;20443;-52
2022/06/16 07:09:29;;;;;;;13.27;12.27;;;20.40;99.90;;;;;;4970722;28;20476;-51
2022/06/16 07:11:55;;;;;;;13.77;12.40;;;20.30;99.90;;;;;;4973524;28;20190;-54
2022/06/16 07:14:20;;;;;;;14.37;12.90;;;20.40;99.90;;;;;;4971909;28;20192;-50
2022/06/16 07:16:49;;;;;;;13.73;12.53;;;20.50;99.90;;;;;;4972472;28;20202;-54
2022/06/16 07:19:15;;;;;;;13.50;12.20;;;20.50;99.90;;;;;;4966468;28;20640;-51
2022/06/16 07:21:41;;;;;;;14.03;12.73;;;20.60;99.90;;;;;;4967015;28;20990;-53
2022/06/16 07:24:06;;;;;;;13.33;12.33;;;20.90;99.90;;;;;;4972470;28;20439;-53
2022/06/16 07:26:33;;;;;;;13.07;11.97;;;21.00;99.90;;;;;;4973249;28;20229;-52
2022/06/16 07:29:00;;;;;;;12.17;11.07;;;21.10;99.90;;;;;;4972083;28;22573;-54
2022/06/16 07:31:27;;;;;;;12.93;11.83;;;21.20;99.90;;;;;;4973179;28;20435;-55
2022/06/16 07:33:53;;;;;;;13.70;12.70;;;21.40;99.90;;;;;;4967598;28;21089;-54
2022/06/16 07:36:18;;;;;;;11.83;10.83;;;21.40;99.90;;;;;;4971939;28;20433;-56
2022/06/16 07:38:46;;;;;;;12.77;11.87;;;21.50;99.90;;;;;;4963126;28;20433;-52
2022/06/16 07:43:55;;;;;;;12.03;10.80;;;21.80;99.90;;;;;;4971217;28;20416;-57
2022/06/16 07:46:21;;;;;;;12.13;11.20;;;22.00;99.90;;;;;;4969348;28;20526;-54
2022/06/16 07:48:46;;;;;;;12.20;11.20;;;22.10;99.90;;;;;;4971144;28;20212;-54
2022/06/16 07:51:12;;;;;;;12.40;11.30;;;22.30;99.90;;;;;;4969460;28;20180;-51
2022/06/16 07:53:38;;;;;;;11.80;10.90;;;22.50;99.90;;;;;;4968909;28;20203;-52
2022/06/16 07:56:04;;;;;;;11.40;10.50;;;22.70;99.90;;;;;;4970148;28;20598;-53
2022/06/16 07:58:31;;;;;;;11.70;10.60;;;22.90;99.60;;;;;;4970888;28;20798;-54
2022/06/16 08:00:58;;;;;;;11.70;10.90;;;23.10;97.40;;;;;;4968727;28;20220;-54
2022/06/16 08:03:26;;;;;;;12.00;10.87;;;23.40;96.70;;;;;;4970720;28;20897;-56
2022/06/16 08:05:53;;;;;;;12.60;11.50;;;23.60;95.60;;;;;;4970623;28;20853;-54
2022/06/16 08:08:22;;;;;;;10.57;9.77;;;23.60;93.50;;;;;;4972514;28;20428;-53
2022/06/16 08:10:48;;;;;;;10.77;9.97;;;23.80;92.10;;;;;;4976812;28;20513;-56
2022/06/16 08:13:14;;;;;;;12.63;10.90;;;24.00;91.90;;;;;;4970871;28;20490;-55
2022/06/16 08:15:42;;;;;;;14.30;11.23;;;24.10;91.40;;;;;;4971115;28;20814;-55
2022/06/16 08:18:10;;;;;;;12.57;11.40;;;24.10;91.10;;;;;;4970014;28;20179;-55
2022/06/16 08:20:36;;;;;;;12.77;11.67;;;24.10;91.70;;;;;;4968635;28;20489;-55
2022/06/16 08:23:01;;;;;;;12.53;11.53;;;24.30;90.90;;;;;;4970030;28;20524;-56
2022/06/16 08:25:28;;;;;;;12.80;11.57;;;24.50;90.10;;;;;;4967776;28;20236;-54
2022/06/16 08:27:55;;;;;;;12.50;11.60;;;24.50;86.90;;;;;;4970053;28;20186;-52
2022/06/16 08:30:21;;;;;;;12.37;11.47;;;24.60;85.20;;;;;;4968870;28;20473;-55
2022/06/16 08:32:47;;;;;;;12.80;11.43;;;24.80;84.60;;;;;;4970516;28;20452;-53
2022/06/16 08:35:12;;;;;;;13.00;11.00;;;24.90;83.50;;;;;;4971966;28;21343;-51
2022/06/16 08:37:39;;;;;;;12.13;11.30;;;24.90;83.80;;;;;;4973189;28;20186;-54
2022/06/16 08:40:06;;;;;;;13.10;11.80;;;24.90;81.20;;;;;;4970445;28;20624;-53
2022/06/16 08:42:38;;;;;;;11.57;10.77;;;24.90;78.30;;;;;;4972801;28;20958;-54
2022/06/16 08:45:09;;;;;;;11.20;10.40;;;24.60;81.50;;;;;;4970465;28;20511;-55
2022/06/16 08:47:52;;;;;;;11.97;10.90;;;24.70;81.90;;;;;;4970553;28;20962;-56
2022/06/16 08:50:37;;;;;;;11.80;10.70;;;24.80;80.50;;;;;;4990255;28;20474;-50
2022/06/16 08:53:37;;;;;;;11.53;10.53;;;25.10;80.40;;;;;;4970799;28;20418;-54
2022/06/16 08:56:18;;;;;;;11.80;10.90;;;25.40;75.60;;;;;;4966285;28;20442;-55
2022/06/16 08:58:57;;;;;;;11.83;10.80;;;25.60;74.30;;;;;;4957710;28;20458;-53
2022/06/16 09:01:32;;;;;;;12.47;11.43;;;25.80;73.00;;;;;;4963487;28;20471;-53
2022/06/16 09:04:13;;;;;;;12.27;11.10;;;26.20;70.00;;;;;;4970749;28;20960;-54
2022/06/16 09:06:51;;;;;;;12.97;11.87;;;26.20;69.50;;;;;;4967650;28;20458;-52
2022/06/16 09:12:49;;;;;;;12.43;11.47;;;26.80;66.90;;;;;;4967107;28;20486;-55
2022/06/16 09:15:14;;;;;;;13.10;12.10;;;27.00;64.40;;;;;;4967989;28;20455;-57
2022/06/16 09:17:49;;;;;;;13.60;12.60;;;27.20;62.50;;;;;;4967475;28;20436;-53
2022/06/16 09:20:32;;;;;;;15.10;13.80;;;27.50;60.50;;;;;;4957497;28;20647;-52
2022/06/16 09:23:00;;;;;;;13.90;13.00;;;27.50;59.80;;;;;;4968121;28;21245;-55
2022/06/16 09:25:35;;;;;;;12.07;11.20;;;27.90;58.90;;;;;;4970295;28;20623;-54
2022/06/16 09:28:11;;;;;;;12.73;11.83;;;28.00;58.30;;;;;;4994175;28;20970;-56
2022/06/16 09:30:40;;;;;;;12.60;11.70;;;28.10;57.40;;;;;;4970041;28;20495;-56
2022/06/16 09:33:26;;;;;;;10.60;9.70;;;27.80;57.30;;;;;;4968304;28;20428;-56
2022/06/16 09:35:54;;;;;;;12.47;11.27;;;27.70;58.70;;;;;;4970095;28;20424;-54
2022/06/16 09:38:32;;;;;;;11.33;10.43;;;27.80;56.90;;;;;;4968762;28;20452;-55
2022/06/16 09:42:32;;;;;;;11.80;10.70;;;27.90;56.50;;;;;;4969779;28;20435;-53
2022/06/16 09:43:58;;;;;;;10.47;9.67;;;27.60;54.70;;;;;;4951050;28;20545;-55
2022/06/16 09:46:32;;;;;;;11.03;10.20;;;27.50;55.90;;;;;;4967493;28;20418;-51
2022/06/16 09:49:03;;;;;;;10.70;9.70;;;27.30;55.40;;;;;;4969398;28;20466;-54
2022/06/16 09:51:32;;;;;;;10.87;10.00;;;27.80;56.00;;;;;;4959270;28;20946;-53
2022/06/16 09:54:03;;;;;;;10.57;9.80;;;28.50;52.30;;;;;;4965185;28;20511;-51
2022/06/16 09:56:46;;;;;;;10.53;9.73;;;29.60;50.10;;;;;;4970026;28;20911;-54
2022/06/16 09:59:20;;;;;;;10.90;10.00;;;30.20;47.40;;;;;;4967052;28;20447;-55
2022/06/16 10:01:51;;;;;;;10.90;10.00;;;30.40;45.60;;;;;;4967028;28;20486;-56
2022/06/16 10:04:17;;;;;;;10.40;9.40;;;30.20;45.80;;;;;;4968155;28;21142;-56
2022/06/16 10:06:54;;;;;;;9.83;9.17;;;30.30;45.80;;;;;;4968921;28;20412;-55
2022/06/16 10:09:28;;;;;;;11.57;10.60;;;30.40;45.40;;;;;;4965946;28;20212;-56
2022/06/16 10:11:57;;;;;;;10.57;9.77;;;30.90;42.20;;;;;;4969108;28;20436;-53
2022/06/16 10:14:43;;;;;;;10.30;9.70;;;31.40;40.50;;;;;;4968006;28;20436;-56
2022/06/16 10:17:12;;;;;;;10.67;10.00;;;31.50;39.70;;;;;;4960974;28;20441;-56
2022/06/16 10:19:43;;;;;;;11.40;10.60;;;31.70;38.70;;;;;;4968761;28;21283;-56
2022/06/16 10:22:12;;;;;;;11.40;10.40;;;30.90;39.00;;;;;;4969088;28;20430;-56
2022/06/16 10:24:56;;;;;;;11.57;10.80;;;30.50;40.50;;;;;;4958891;28;20547;-56
2022/06/16 10:27:28;;;;;;;12.27;10.50;;;29.90;41.00;;;;;;4967502;28;20435;-53
2022/06/16 10:29:59;;;;;;;10.90;10.10;;;29.30;42.10;;;;;;4968737;28;20507;-57
2022/06/16 10:32:42;;;;;;;11.50;10.70;;;28.80;44.40;;;;;;4967102;28;20982;-55
2022/06/16 10:35:18;;;;;;;10.70;10.00;;;28.90;43.10;;;;;;4969631;28;20431;-57
2022/06/16 10:37:46;;;;;;;10.73;10.03;;;28.80;43.10;;;;;;4973144;28;20422;-56
2022/06/16 10:40:40;;;;;;;10.97;10.17;;;28.80;43.60;;;;;;4975201;28;20420;-55
2022/06/16 10:43:12;;;;;;;10.47;9.77;;;28.70;44.50;;;;;;4957924;28;20803;-55
2022/06/16 10:45:39;;;;;;;11.00;10.40;;;28.60;45.00;;;;;;4963477;28;20433;-57
2022/06/16 10:48:30;;;;;;;10.43;9.80;;;28.60;43.80;;;;;;4969350;28;20424;-56
2022/06/16 10:51:14;;;;;;;10.87;9.90;;;28.30;44.40;;;;;;4958415;28;20423;-55
2022/06/16 10:53:45;;;;;;;12.57;11.57;;;28.30;44.20;;;;;;4973039;28;20412;-55
2022/06/16 10:56:20;;;;;;;11.40;10.60;;;28.20;44.50;;;;;;4972886;28;20420;-56
2022/06/16 10:59:05;;;;;;;11.93;11.13;;;28.40;44.60;;;;;;4970899;28;20514;-55
2022/06/16 11:01:35;;;;;;;11.40;10.70;;;28.70;43.20;;;;;;4968459;28;20567;-57
2022/06/16 11:04:18;;;;;;;12.03;11.20;;;29.20;42.50;;;;;;4972501;28;20868;-56
2022/06/16 11:06:52;;;;;;;11.50;10.50;;;28.80;41.80;;;;;;4973038;28;20949;-56
2022/06/16 11:09:22;;;;;;;11.20;10.50;;;28.60;43.90;;;;;;4969124;28;20551;-54
2022/06/16 11:12:00;;;;;;;12.17;11.37;;;28.70;43.20;;;;;;4972596;28;20427;-56
2022/06/16 11:14:39;;;;;;;11.53;10.70;;;28.30;43.50;;;;;;4970426;28;20440;-54
2022/06/16 11:17:18;;;;;;;11.23;10.30;;;28.10;43.90;;;;;;4968383;28;20444;-58
2022/06/16 11:19:50;;;;;;;10.73;9.93;;;28.20;44.60;;;;;;4961523;28;20475;-56
2022/06/16 11:22:39;;;;;;;12.17;11.10;;;28.20;43.30;;;;;;4966624;28;20442;-51
2022/06/16 11:25:21;;;;;;;11.20;10.50;;;28.40;43.60;;;;;;4966165;28;20527;-52
2022/06/16 11:27:56;;;;;;;11.27;10.57;;;28.70;43.20;;;;;;4969867;28;20432;-53
2022/06/16 11:30:51;;;;;;;9.97;9.30;;;28.80;41.10;;;;;;4972058;28;20470;-51
2022/06/16 11:37:00;;;;;;;11.20;10.50;;;28.90;42.50;;;;;;4970222;28;20445;-53
2022/06/16 11:39:55;;;;;;;10.73;10.13;;;29.30;41.80;;;;;;4974500;28;20759;-54
2022/06/16 11:42:20;;;;;;;10.60;9.90;;;30.60;39.40;;;;;;4972355;28;20424;-55
2022/06/16 11:44:54;;;;;;;10.57;9.90;;;31.90;37.70;;;;;;4970916;28;20448;-55
2022/06/16 11:47:25;;;;;;;10.43;9.83;;;33.10;34.50;;;;;;4966742;28;20181;-56
2022/06/16 11:49:56;;;;;;;10.50;9.90;;;33.60;31.40;;;;;;4969826;28;20499;-55
2022/06/16 11:52:40;;;;;;;10.17;9.47;;;33.60;31.30;;;;;;4980218;28;20419;-54
2022/06/16 11:55:14;;;;;;;10.90;10.10;;;33.30;29.90;;;;;;4960610;28;20479;-55
2022/06/16 11:58:09;;;;;;;12.80;11.90;;;32.50;31.20;;;;;;4984695;28;20416;-54
2022/06/16 12:00:57;;;;;;;10.63;9.83;;;32.10;31.00;;;;;;4970770;28;20468;-55
2022/06/16 12:03:43;;;;;;;11.90;10.70;;;31.90;31.80;;;;;;4972071;28;20495;-55
2022/06/16 12:06:14;;;;;;;10.80;9.93;;;32.40;32.10;;;;;;4970636;28;20440;-54
2022/06/16 12:08:59;;;;;;;13.87;12.87;;;33.00;31.10;;;;;;4971638;28;20412;-55
2022/06/16 12:11:36;;;;;;;10.60;10.00;;;33.80;30.40;;;;;;4971368;28;20515;-55
2022/06/16 12:14:21;;;;;;;10.93;10.10;;;34.40;29.40;;;;;;4971735;28;20428;-52
2022/06/16 12:16:59;;;;;;;11.90;11.00;;;34.40;27.70;;;;;;4971107;28;20790;-56
2022/06/16 12:19:33;;;;;;;10.30;9.70;;;34.10;28.50;;;;;;4971658;28;20420;-55
2022/06/16 12:22:26;;;;;;;10.30;9.60;;;33.40;28.60;;;;;;4970957;28;20430;-54
2022/06/16 12:25:04;;;;;;;11.50;10.90;;;33.00;28.70;;;;;;4970078;28;20456;-52
2022/06/16 12:27:46;;;;;;;10.40;9.70;;;32.70;29.60;;;;;;4962023;28;20424;-54
2022/06/16 12:30:24;;;;;;;8.60;8.10;;;32.70;30.00;;;;;;4970584;28;20619;-56
2022/06/16 12:33:32;;;;;;;10.50;9.90;;;33.10;27.20;;;;;;4966540;28;21017;-55
2022/06/16 12:36:23;;;;;;;10.03;9.33;;;32.80;28.00;;;;;;4969531;28;20479;-56
2022/06/16 12:39:15;;;;;;;10.10;9.50;;;32.90;29.20;;;;;;4967464;28;20436;-56
2022/06/16 12:41:45;;;;;;;11.33;10.33;;;33.30;28.90;;;;;;4962637;28;20447;-54
2022/06/16 12:44:35;;;;;;;10.87;10.17;;;34.00;28.20;;;;;;4961126;28;20840;-55
2022/06/16 12:47:24;;;;;;;10.47;9.70;;;34.20;27.30;;;;;;4962025;28;20907;-53
2022/06/16 12:50:19;;;;;;;9.50;9.00;;;35.00;26.20;;;;;;4963985;28;20575;-55
2022/06/16 12:53:09;;;;;;;10.20;9.30;;;35.40;25.50;;;;;;4970215;28;20928;-53
2022/06/16 12:56:04;;;;;;;9.70;9.10;;;35.60;24.60;;;;;;4970654;28;20428;-55
2022/06/16 12:58:36;;;;;;;11.00;10.40;;;35.10;24.10;;;;;;4969790;28;20431;-55
2022/06/16 13:01:05;;;;;;;10.60;10.00;;;34.40;25.80;;;;;;4965587;28;20822;-56
2022/06/16 13:03:46;;;;;;;11.07;10.27;;;34.80;26.00;;;;;;4969023;28;20936;-55
2022/06/16 13:06:13;;;;;;;10.70;9.80;;;35.00;25.80;;;;;;4970761;28;20431;-56
2022/06/16 13:08:44;;;;;;;10.17;9.47;;;35.70;25.80;;;;;;4970094;28;20535;-56
2022/06/16 13:11:20;;;;;;;10.10;9.50;;;36.30;24.40;;;;;;4970639;28;20963;-56
2022/06/16 13:14:08;;;;;;;9.80;9.20;;;36.80;23.10;;;;;;4969429;28;20519;-54
2022/06/16 13:16:38;;;;;;;10.27;9.73;;;36.90;23.20;;;;;;4970439;28;20420;-55
2022/06/16 13:19:23;;;;;;;10.33;9.63;;;37.40;22.20;;;;;;4969850;28;20440;-53
2022/06/16 13:22:06;;;;;;;9.53;8.97;;;37.50;22.10;;;;;;4969828;28;20471;-56
2022/06/16 13:24:39;;;;;;;9.50;8.87;;;37.60;21.30;;;;;;4969033;28;20441;-55
2022/06/16 13:27:32;;;;;;;10.27;9.30;;;37.60;21.30;;;;;;4970102;28;20506;-56
2022/06/16 13:30:20;;;;;;;9.33;8.73;;;37.50;21.20;;;;;;4968887;28;21013;-54
2022/06/16 13:32:48;;;;;;;9.33;8.83;;;37.50;21.30;;;;;;4976055;28;20935;-53
2022/06/16 13:35:13;;;;;;;9.67;9.07;;;37.20;21.40;;;;;;4967351;28;20470;-57
2022/06/16 13:37:42;;;;;;;9.33;8.80;;;37.60;20.40;;;;;;4969410;28;20429;-56
2022/06/16 13:40:08;;;;;;;9.53;8.93;;;37.30;20.20;;;;;;4969207;28;20215;-55
2022/06/16 13:42:52;;;;;;;9.90;9.20;;;36.70;20.60;;;;;;4967271;28;20444;-57
2022/06/16 13:45:30;;;;;;;9.53;8.93;;;36.40;21.30;;;;;;4969350;28;20217;-57
2022/06/16 13:48:11;;;;;;;10.37;9.43;;;36.60;21.50;;;;;;4964581;28;20461;-58
2022/06/16 13:50:56;;;;;;;10.87;10.13;;;36.00;21.40;;;;;;4967964;28;20809;-57
2022/06/16 13:53:31;;;;;;;10.07;9.57;;;35.50;21.80;;;;;;4962802;28;20526;-57
2022/06/16 13:55:57;;;;;;;10.20;9.50;;;35.40;22.80;;;;;;4958685;28;20435;-54
2022/06/16 13:58:25;;;;;;;9.00;8.50;;;35.40;21.30;;;;;;4969096;28;20425;-57
2022/06/16 14:01:13;;;;;;;9.10;8.67;;;35.40;21.30;;;;;;4969627;28;20233;-56
2022/06/16 14:03:59;;;;;;;9.10;8.50;;;35.60;22.10;;;;;;4968220;28;20962;-53
2022/06/16 14:06:32;;;;;;;8.00;7.60;;;36.00;20.80;;;;;;4970823;28;20429;-56
2022/06/16 14:09:11;;;;;;;9.40;8.90;;;36.30;20.60;;;;;;4967875;28;20981;-55
2022/06/16 14:12:11;;;;;;;9.00;8.50;;;36.90;20.20;;;;;;4968577;28;20431;-57
2022/06/16 14:14:54;;;;;;;8.70;8.10;;;37.60;20.00;;;;;;4968728;28;20444;-57
2022/06/16 14:17:41;;;;;;;9.07;8.57;;;37.80;19.50;;;;;;4969523;28;20428;-57
2022/06/16 14:20:30;;;;;;;9.40;8.87;;;37.10;19.80;;;;;;4968512;28;20468;-56
2022/06/16 14:23:06;;;;;;;8.80;8.30;;;37.30;20.00;;;;;;4968760;28;20441;-57
2022/06/16 14:25:43;;;;;;;9.37;8.77;;;37.10;20.20;;;;;;4969045;28;20436;-57